sensor_id;sensor_type;location;lat;lon;timestamp;P1;durP1;ratioP1;P2;durP2;ratioP2
62798;SDS011;48842;51.046;13.796;2023-05-07T00:00:39;15.13;;;12.97;;
62798;SDS011;48842;51.046;13.796;2023-05-07T00:03:05;17.23;;;14.13;;
62798;SDS011;48842;51.046;13.796;2023-05-07T00:05:31;16.90;;;13.17;;
62798;SDS011;48842;51.046;13.796;2023-05-07T00:07:56;14.40;;;12.57;;
62798;SDS011;48842;51.046;13.796;2023-05-07T00:10:22;18.30;;;14.83;;
62798;SDS011;48842;51.046;13.796;2023-05-07T00:12:47;17.70;;;13.50;;
62798;SDS011;48842;51.046;13.796;2023-05-07T00:15:12;16.80;;;13.30;;
62798;SDS011;48842;51.046;13.796;2023-05-07T00:17:37;17.00;;;13.10;;
62798;SDS011;48842;51.046;13.796;2023-05-07T00:20:03;16.93;;;13.27;;
62798;SDS011;48842;51.046;13.796;2023-05-07T00:22:29;18.90;;;15.73;;
62798;SDS011;48842;51.046;13.796;2023-05-07T00:24:55;20.53;;;15.10;;
62798;SDS011;48842;51.046;13.796;2023-05-07T00:27:21;19.63;;;14.60;;
62798;SDS011;48842;51.046;13.796;2023-05-07T00:29:47;19.50;;;16.70;;
62798;SDS011;48842;51.046;13.796;2023-05-07T00:32:12;19.87;;;15.70;;
62798;SDS011;48842;51.046;13.796;2023-05-07T00:34:37;20.13;;;14.63;;
62798;SDS011;48842;51.046;13.796;2023-05-07T00:37:04;19.70;;;15.03;;
62798;SDS011;48842;51.046;13.796;2023-05-07T00:39:29;21.53;;;16.77;;
62798;SDS011;48842;51.046;13.796;2023-05-07T00:41:55;20.50;;;16.90;;
62798;SDS011;48842;51.046;13.796;2023-05-07T00:44:20;19.30;;;16.20;;
62798;SDS011;48842;51.046;13.796;2023-05-07T00:46:45;18.83;;;16.20;;
62798;SDS011;48842;51.046;13.796;2023-05-07T00:49:13;21.87;;;17.57;;
62798;SDS011;48842;51.046;13.796;2023-05-07T00:51:39;21.10;;;18.40;;
62798;SDS011;48842;51.046;13.796;2023-05-07T00:54:04;20.50;;;17.40;;
62798;SDS011;48842;51.046;13.796;2023-05-07T00:56:29;22.80;;;18.07;;
62798;SDS011;48842;51.046;13.796;2023-05-07T00:58:56;19.10;;;16.20;;
62798;SDS011;48842;51.046;13.796;2023-05-07T01:01:21;21.23;;;16.90;;
62798;SDS011;48842;51.046;13.796;2023-05-07T01:03:47;20.30;;;16.27;;
62798;SDS011;48842;51.046;13.796;2023-05-07T01:06:12;20.20;;;15.23;;
62798;SDS011;48842;51.046;13.796;2023-05-07T01:08:41;19.70;;;16.70;;
62798;SDS011;48842;51.046;13.796;2023-05-07T01:11:07;18.60;;;15.57;;
62798;SDS011;48842;51.046;13.796;2023-05-07T01:13:34;22.23;;;16.37;;
62798;SDS011;48842;51.046;13.796;2023-05-07T01:16:00;20.20;;;15.00;;
62798;SDS011;48842;51.046;13.796;2023-05-07T01:18:25;17.00;;;15.17;;
62798;SDS011;48842;51.046;13.796;2023-05-07T01:20:51;16.67;;;14.50;;
62798;SDS011;48842;51.046;13.796;2023-05-07T01:23:17;15.40;;;13.73;;
62798;SDS011;48842;51.046;13.796;2023-05-07T01:25:43;15.70;;;14.00;;
62798;SDS011;48842;51.046;13.796;2023-05-07T01:28:08;15.73;;;13.53;;
62798;SDS011;48842;51.046;13.796;2023-05-07T01:30:33;15.47;;;13.63;;
62798;SDS011;48842;51.046;13.796;2023-05-07T01:33:04;16.23;;;13.03;;
62798;SDS011;48842;51.046;13.796;2023-05-07T01:35:37;15.03;;;13.10;;
62798;SDS011;48842;51.046;13.796;2023-05-07T01:38:05;14.60;;;13.00;;
62798;SDS011;48842;51.046;13.796;2023-05-07T01:40:31;16.20;;;14.47;;
62798;SDS011;48842;51.046;13.796;2023-05-07T01:42:56;18.00;;;14.40;;
62798;SDS011;48842;51.046;13.796;2023-05-07T01:45:22;21.10;;;15.03;;
62798;SDS011;48842;51.046;13.796;2023-05-07T01:47:48;14.77;;;13.20;;
62798;SDS011;48842;51.046;13.796;2023-05-07T01:50:14;15.90;;;14.07;;
62798;SDS011;48842;51.046;13.796;2023-05-07T01:52:41;16.83;;;14.10;;
62798;SDS011;48842;51.046;13.796;2023-05-07T01:55:07;17.57;;;15.17;;
62798;SDS011;48842;51.046;13.796;2023-05-07T01:57:32;19.53;;;14.13;;
62798;SDS011;48842;51.046;13.796;2023-05-07T01:59:57;16.87;;;14.07;;
62798;SDS011;48842;51.046;13.796;2023-05-07T02:02:23;17.80;;;14.10;;
62798;SDS011;48842;51.046;13.796;2023-05-07T02:04:48;15.87;;;14.27;;
62798;SDS011;48842;51.046;13.796;2023-05-07T02:07:13;18.77;;;14.53;;
62798;SDS011;48842;51.046;13.796;2023-05-07T02:09:38;15.97;;;14.27;;
62798;SDS011;48842;51.046;13.796;2023-05-07T02:12:04;17.27;;;14.67;;
62798;SDS011;48842;51.046;13.796;2023-05-07T02:14:29;16.23;;;13.77;;
62798;SDS011;48842;51.046;13.796;2023-05-07T02:16:54;15.17;;;13.30;;
62798;SDS011;48842;51.046;13.796;2023-05-07T02:19:20;16.90;;;14.50;;
62798;SDS011;48842;51.046;13.796;2023-05-07T02:21:46;16.53;;;14.77;;
62798;SDS011;48842;51.046;13.796;2023-05-07T02:24:11;15.70;;;14.00;;
62798;SDS011;48842;51.046;13.796;2023-05-07T02:26:37;15.90;;;13.57;;
62798;SDS011;48842;51.046;13.796;2023-05-07T02:29:02;15.30;;;13.80;;
62798;SDS011;48842;51.046;13.796;2023-05-07T02:31:27;16.80;;;14.97;;
62798;SDS011;48842;51.046;13.796;2023-05-07T02:33:52;15.60;;;14.00;;
62798;SDS011;48842;51.046;13.796;2023-05-07T02:36:18;18.23;;;13.97;;
62798;SDS011;48842;51.046;13.796;2023-05-07T02:38:43;15.87;;;14.20;;
62798;SDS011;48842;51.046;13.796;2023-05-07T02:41:08;15.37;;;13.73;;
62798;SDS011;48842;51.046;13.796;2023-05-07T02:43:33;15.80;;;13.93;;
62798;SDS011;48842;51.046;13.796;2023-05-07T02:46:02;18.80;;;13.00;;
62798;SDS011;48842;51.046;13.796;2023-05-07T02:48:29;13.83;;;12.27;;
62798;SDS011;48842;51.046;13.796;2023-05-07T02:50:54;12.40;;;11.10;;
62798;SDS011;48842;51.046;13.796;2023-05-07T02:53:20;12.37;;;10.40;;
62798;SDS011;48842;51.046;13.796;2023-05-07T02:55:45;12.23;;;10.93;;
62798;SDS011;48842;51.046;13.796;2023-05-07T02:58:10;13.77;;;10.00;;
62798;SDS011;48842;51.046;13.796;2023-05-07T03:00:35;12.50;;;9.80;;
62798;SDS011;48842;51.046;13.796;2023-05-07T03:03:01;12.13;;;10.20;;
62798;SDS011;48842;51.046;13.796;2023-05-07T03:05:26;10.27;;;9.20;;
62798;SDS011;48842;51.046;13.796;2023-05-07T03:07:51;12.10;;;9.07;;
62798;SDS011;48842;51.046;13.796;2023-05-07T03:10:16;11.67;;;10.13;;
62798;SDS011;48842;51.046;13.796;2023-05-07T03:12:43;12.17;;;10.20;;
62798;SDS011;48842;51.046;13.796;2023-05-07T03:15:08;13.93;;;9.97;;
62798;SDS011;48842;51.046;13.796;2023-05-07T03:17:35;11.10;;;9.90;;
62798;SDS011;48842;51.046;13.796;2023-05-07T03:20:00;12.60;;;10.50;;
62798;SDS011;48842;51.046;13.796;2023-05-07T03:22:26;13.70;;;11.67;;
62798;SDS011;48842;51.046;13.796;2023-05-07T03:24:51;12.20;;;10.80;;
62798;SDS011;48842;51.046;13.796;2023-05-07T03:27:16;14.73;;;11.87;;
62798;SDS011;48842;51.046;13.796;2023-05-07T03:29:41;13.10;;;10.90;;
62798;SDS011;48842;51.046;13.796;2023-05-07T03:32:07;15.10;;;12.33;;
62798;SDS011;48842;51.046;13.796;2023-05-07T03:34:32;14.63;;;11.37;;
62798;SDS011;48842;51.046;13.796;2023-05-07T03:36:57;13.97;;;10.77;;
62798;SDS011;48842;51.046;13.796;2023-05-07T03:39:22;16.80;;;12.83;;
62798;SDS011;48842;51.046;13.796;2023-05-07T03:41:48;12.77;;;10.67;;
62798;SDS011;48842;51.046;13.796;2023-05-07T03:44:13;18.80;;;13.67;;
62798;SDS011;48842;51.046;13.796;2023-05-07T03:46:38;15.73;;;11.90;;
62798;SDS011;48842;51.046;13.796;2023-05-07T03:49:03;19.00;;;13.63;;
62798;SDS011;48842;51.046;13.796;2023-05-07T03:51:29;22.40;;;13.57;;
62798;SDS011;48842;51.046;13.796;2023-05-07T03:53:55;18.20;;;14.30;;
62798;SDS011;48842;51.046;13.796;2023-05-07T03:56:22;18.50;;;14.17;;
62798;SDS011;48842;51.046;13.796;2023-05-07T03:58:47;17.87;;;14.10;;
62798;SDS011;48842;51.046;13.796;2023-05-07T04:01:13;19.30;;;14.40;;
62798;SDS011;48842;51.046;13.796;2023-05-07T04:03:38;18.10;;;14.40;;
62798;SDS011;48842;51.046;13.796;2023-05-07T04:06:03;19.73;;;15.40;;
62798;SDS011;48842;51.046;13.796;2023-05-07T04:08:29;17.33;;;14.80;;
62798;SDS011;48842;51.046;13.796;2023-05-07T04:10:57;16.73;;;14.10;;
62798;SDS011;48842;51.046;13.796;2023-05-07T04:13:23;18.37;;;14.63;;
62798;SDS011;48842;51.046;13.796;2023-05-07T04:15:49;19.20;;;15.53;;
62798;SDS011;48842;51.046;13.796;2023-05-07T04:18:15;20.40;;;14.80;;
62798;SDS011;48842;51.046;13.796;2023-05-07T04:20:40;19.80;;;14.97;;
62798;SDS011;48842;51.046;13.796;2023-05-07T04:23:06;19.70;;;14.77;;
62798;SDS011;48842;51.046;13.796;2023-05-07T04:25:31;17.07;;;13.40;;
62798;SDS011;48842;51.046;13.796;2023-05-07T04:27:57;18.20;;;13.93;;
62798;SDS011;48842;51.046;13.796;2023-05-07T04:30:22;20.10;;;15.57;;
62798;SDS011;48842;51.046;13.796;2023-05-07T04:32:47;20.93;;;15.50;;
62798;SDS011;48842;51.046;13.796;2023-05-07T04:35:13;19.50;;;15.10;;
62798;SDS011;48842;51.046;13.796;2023-05-07T04:37:38;18.00;;;13.90;;
62798;SDS011;48842;51.046;13.796;2023-05-07T04:40:03;17.03;;;13.17;;
62798;SDS011;48842;51.046;13.796;2023-05-07T04:42:29;16.10;;;13.20;;
62798;SDS011;48842;51.046;13.796;2023-05-07T04:44:54;19.33;;;13.87;;
62798;SDS011;48842;51.046;13.796;2023-05-07T04:47:19;12.83;;;11.53;;
62798;SDS011;48842;51.046;13.796;2023-05-07T04:49:45;12.30;;;10.97;;
62798;SDS011;48842;51.046;13.796;2023-05-07T04:52:10;14.53;;;12.30;;
62798;SDS011;48842;51.046;13.796;2023-05-07T04:54:36;15.90;;;13.27;;
62798;SDS011;48842;51.046;13.796;2023-05-07T04:57:02;15.40;;;12.37;;
62798;SDS011;48842;51.046;13.796;2023-05-07T04:59:29;15.40;;;12.20;;
62798;SDS011;48842;51.046;13.796;2023-05-07T05:01:54;19.53;;;13.53;;
62798;SDS011;48842;51.046;13.796;2023-05-07T05:04:20;18.23;;;13.20;;
62798;SDS011;48842;51.046;13.796;2023-05-07T05:06:45;14.80;;;12.67;;
62798;SDS011;48842;51.046;13.796;2023-05-07T05:09:10;17.27;;;13.73;;
62798;SDS011;48842;51.046;13.796;2023-05-07T05:11:36;20.10;;;14.70;;
62798;SDS011;48842;51.046;13.796;2023-05-07T05:14:01;16.73;;;13.60;;
62798;SDS011;48842;51.046;13.796;2023-05-07T05:16:26;16.90;;;12.40;;
62798;SDS011;48842;51.046;13.796;2023-05-07T05:18:52;20.97;;;13.37;;
62798;SDS011;48842;51.046;13.796;2023-05-07T05:21:19;16.00;;;12.90;;
62798;SDS011;48842;51.046;13.796;2023-05-07T05:23:44;16.83;;;14.13;;
62798;SDS011;48842;51.046;13.796;2023-05-07T05:26:09;16.37;;;13.70;;
62798;SDS011;48842;51.046;13.796;2023-05-07T05:28:35;17.10;;;12.53;;
62798;SDS011;48842;51.046;13.796;2023-05-07T05:31:00;15.90;;;12.20;;
62798;SDS011;48842;51.046;13.796;2023-05-07T05:33:25;14.67;;;11.97;;
62798;SDS011;48842;51.046;13.796;2023-05-07T05:35:51;14.40;;;11.93;;
62798;SDS011;48842;51.046;13.796;2023-05-07T05:38:16;13.70;;;11.93;;
62798;SDS011;48842;51.046;13.796;2023-05-07T05:40:41;13.50;;;10.70;;
62798;SDS011;48842;51.046;13.796;2023-05-07T05:43:06;16.33;;;11.10;;
62798;SDS011;48842;51.046;13.796;2023-05-07T05:45:32;15.20;;;12.27;;
62798;SDS011;48842;51.046;13.796;2023-05-07T05:47:57;16.47;;;12.03;;
62798;SDS011;48842;51.046;13.796;2023-05-07T05:50:22;12.07;;;10.07;;
62798;SDS011;48842;51.046;13.796;2023-05-07T05:52:48;13.03;;;10.10;;
62798;SDS011;48842;51.046;13.796;2023-05-07T05:55:13;10.47;;;8.90;;
62798;SDS011;48842;51.046;13.796;2023-05-07T05:57:39;11.40;;;9.00;;
62798;SDS011;48842;51.046;13.796;2023-05-07T06:00:05;10.87;;;9.07;;
62798;SDS011;48842;51.046;13.796;2023-05-07T06:02:31;9.03;;;7.53;;
62798;SDS011;48842;51.046;13.796;2023-05-07T06:04:56;9.37;;;7.50;;
62798;SDS011;48842;51.046;13.796;2023-05-07T06:07:22;9.67;;;7.67;;
62798;SDS011;48842;51.046;13.796;2023-05-07T06:09:47;9.13;;;8.23;;
62798;SDS011;48842;51.046;13.796;2023-05-07T06:12:12;8.20;;;7.50;;
62798;SDS011;48842;51.046;13.796;2023-05-07T06:14:37;10.40;;;7.70;;
62798;SDS011;48842;51.046;13.796;2023-05-07T06:17:03;8.90;;;7.47;;
62798;SDS011;48842;51.046;13.796;2023-05-07T06:19:28;10.83;;;7.90;;
62798;SDS011;48842;51.046;13.796;2023-05-07T06:21:54;8.90;;;8.00;;
62798;SDS011;48842;51.046;13.796;2023-05-07T06:24:21;7.83;;;7.03;;
62798;SDS011;48842;51.046;13.796;2023-05-07T06:26:46;8.33;;;7.40;;
62798;SDS011;48842;51.046;13.796;2023-05-07T06:29:11;8.63;;;7.30;;
62798;SDS011;48842;51.046;13.796;2023-05-07T06:31:36;8.40;;;7.50;;
62798;SDS011;48842;51.046;13.796;2023-05-07T06:34:03;8.00;;;7.23;;
62798;SDS011;48842;51.046;13.796;2023-05-07T06:36:28;7.70;;;7.00;;
62798;SDS011;48842;51.046;13.796;2023-05-07T06:38:53;7.60;;;6.80;;
62798;SDS011;48842;51.046;13.796;2023-05-07T06:41:19;8.67;;;7.60;;
62798;SDS011;48842;51.046;13.796;2023-05-07T06:43:45;8.13;;;7.33;;
62798;SDS011;48842;51.046;13.796;2023-05-07T06:46:10;15.30;;;8.57;;
62798;SDS011;48842;51.046;13.796;2023-05-07T06:48:35;8.90;;;8.10;;
62798;SDS011;48842;51.046;13.796;2023-05-07T06:51:01;9.33;;;8.30;;
62798;SDS011;48842;51.046;13.796;2023-05-07T06:53:26;8.40;;;7.70;;
62798;SDS011;48842;51.046;13.796;2023-05-07T06:55:51;9.07;;;7.80;;
62798;SDS011;48842;51.046;13.796;2023-05-07T06:58:17;12.57;;;9.03;;
62798;SDS011;48842;51.046;13.796;2023-05-07T07:00:42;11.40;;;8.80;;
62798;SDS011;48842;51.046;13.796;2023-05-07T07:03:07;12.07;;;9.20;;
62798;SDS011;48842;51.046;13.796;2023-05-07T07:05:33;10.13;;;9.10;;
62798;SDS011;48842;51.046;13.796;2023-05-07T07:07:58;10.17;;;9.07;;
62798;SDS011;48842;51.046;13.796;2023-05-07T07:10:23;8.07;;;7.27;;
62798;SDS011;48842;51.046;13.796;2023-05-07T07:12:49;8.50;;;7.60;;
62798;SDS011;48842;51.046;13.796;2023-05-07T07:15:15;10.30;;;8.10;;
62798;SDS011;48842;51.046;13.796;2023-05-07T07:17:40;7.17;;;6.43;;
62798;SDS011;48842;51.046;13.796;2023-05-07T07:20:06;7.37;;;6.43;;
62798;SDS011;48842;51.046;13.796;2023-05-07T07:22:32;6.60;;;6.10;;
62798;SDS011;48842;51.046;13.796;2023-05-07T07:24:57;6.67;;;5.97;;
62798;SDS011;48842;51.046;13.796;2023-05-07T07:27:22;5.80;;;5.40;;
62798;SDS011;48842;51.046;13.796;2023-05-07T07:29:47;5.40;;;4.90;;
62798;SDS011;48842;51.046;13.796;2023-05-07T07:32:13;5.30;;;4.80;;
62798;SDS011;48842;51.046;13.796;2023-05-07T07:34:38;5.70;;;5.20;;
62798;SDS011;48842;51.046;13.796;2023-05-07T07:37:03;7.70;;;5.60;;
62798;SDS011;48842;51.046;13.796;2023-05-07T07:39:31;5.20;;;4.73;;
62798;SDS011;48842;51.046;13.796;2023-05-07T07:41:57;6.00;;;5.50;;
62798;SDS011;48842;51.046;13.796;2023-05-07T07:44:22;5.40;;;4.77;;
62798;SDS011;48842;51.046;13.796;2023-05-07T07:46:47;4.70;;;4.30;;
62798;SDS011;48842;51.046;13.796;2023-05-07T07:49:12;4.73;;;4.40;;
62798;SDS011;48842;51.046;13.796;2023-05-07T07:51:38;5.87;;;5.00;;
62798;SDS011;48842;51.046;13.796;2023-05-07T07:54:03;6.83;;;5.43;;
62798;SDS011;48842;51.046;13.796;2023-05-07T07:56:28;6.00;;;5.50;;
62798;SDS011;48842;51.046;13.796;2023-05-07T07:58:53;5.50;;;5.00;;
62798;SDS011;48842;51.046;13.796;2023-05-07T08:01:19;4.50;;;4.30;;
62798;SDS011;48842;51.046;13.796;2023-05-07T08:03:44;5.80;;;5.20;;
62798;SDS011;48842;51.046;13.796;2023-05-07T08:06:10;5.40;;;5.00;;
62798;SDS011;48842;51.046;13.796;2023-05-07T08:08:35;5.63;;;5.13;;
62798;SDS011;48842;51.046;13.796;2023-05-07T08:11:00;4.47;;;4.20;;
62798;SDS011;48842;51.046;13.796;2023-05-07T08:13:26;5.60;;;5.10;;
62798;SDS011;48842;51.046;13.796;2023-05-07T08:15:51;4.67;;;4.23;;
62798;SDS011;48842;51.046;13.796;2023-05-07T08:18:17;6.17;;;4.33;;
62798;SDS011;48842;51.046;13.796;2023-05-07T08:20:42;3.70;;;3.50;;
62798;SDS011;48842;51.046;13.796;2023-05-07T08:23:07;4.03;;;3.83;;
62798;SDS011;48842;51.046;13.796;2023-05-07T08:25:33;4.00;;;3.80;;
62798;SDS011;48842;51.046;13.796;2023-05-07T08:27:59;4.70;;;4.40;;
62798;SDS011;48842;51.046;13.796;2023-05-07T08:30:24;4.60;;;4.23;;
62798;SDS011;48842;51.046;13.796;2023-05-07T08:32:49;5.10;;;4.70;;
62798;SDS011;48842;51.046;13.796;2023-05-07T08:35:15;4.93;;;4.53;;
62798;SDS011;48842;51.046;13.796;2023-05-07T08:37:40;4.73;;;4.43;;
62798;SDS011;48842;51.046;13.796;2023-05-07T08:40:05;5.27;;;4.87;;
62798;SDS011;48842;51.046;13.796;2023-05-07T08:42:32;5.30;;;4.80;;
62798;SDS011;48842;51.046;13.796;2023-05-07T08:45:01;5.70;;;5.00;;
62798;SDS011;48842;51.046;13.796;2023-05-07T08:47:32;5.57;;;5.17;;
62798;SDS011;48842;51.046;13.796;2023-05-07T08:50:03;6.03;;;5.63;;
62798;SDS011;48842;51.046;13.796;2023-05-07T08:52:29;5.63;;;5.20;;
62798;SDS011;48842;51.046;13.796;2023-05-07T08:54:55;6.87;;;6.27;;
62798;SDS011;48842;51.046;13.796;2023-05-07T08:57:21;7.00;;;6.33;;
62798;SDS011;48842;51.046;13.796;2023-05-07T08:59:48;7.00;;;6.30;;
62798;SDS011;48842;51.046;13.796;2023-05-07T09:02:14;7.53;;;6.83;;
62798;SDS011;48842;51.046;13.796;2023-05-07T09:04:39;7.33;;;6.73;;
62798;SDS011;48842;51.046;13.796;2023-05-07T09:07:05;7.30;;;6.60;;
62798;SDS011;48842;51.046;13.796;2023-05-07T09:09:32;7.33;;;6.63;;
62798;SDS011;48842;51.046;13.796;2023-05-07T09:11:57;7.60;;;6.90;;
62798;SDS011;48842;51.046;13.796;2023-05-07T09:14:26;7.37;;;6.67;;
62798;SDS011;48842;51.046;13.796;2023-05-07T09:16:52;8.63;;;7.73;;
62798;SDS011;48842;51.046;13.796;2023-05-07T09:19:21;7.40;;;6.70;;
62798;SDS011;48842;51.046;13.796;2023-05-07T09:22:01;8.20;;;6.67;;
62798;SDS011;48842;51.046;13.796;2023-05-07T09:24:28;8.70;;;7.27;;
62798;SDS011;48842;51.046;13.796;2023-05-07T09:26:58;7.63;;;6.83;;
62798;SDS011;48842;51.046;13.796;2023-05-07T09:29:25;7.40;;;6.70;;
62798;SDS011;48842;51.046;13.796;2023-05-07T09:31:50;8.43;;;7.63;;
62798;SDS011;48842;51.046;13.796;2023-05-07T09:34:15;7.47;;;6.67;;
62798;SDS011;48842;51.046;13.796;2023-05-07T09:36:41;8.03;;;7.30;;
62798;SDS011;48842;51.046;13.796;2023-05-07T09:39:06;8.60;;;7.23;;
62798;SDS011;48842;51.046;13.796;2023-05-07T09:41:32;7.93;;;7.20;;
62798;SDS011;48842;51.046;13.796;2023-05-07T09:43:57;7.60;;;6.70;;
62798;SDS011;48842;51.046;13.796;2023-05-07T09:46:28;7.60;;;7.00;;
62798;SDS011;48842;51.046;13.796;2023-05-07T09:48:56;8.27;;;7.43;;
62798;SDS011;48842;51.046;13.796;2023-05-07T09:51:39;7.47;;;6.77;;
62798;SDS011;48842;51.046;13.796;2023-05-07T09:54:08;7.80;;;7.03;;
62798;SDS011;48842;51.046;13.796;2023-05-07T09:56:34;8.50;;;7.70;;
62798;SDS011;48842;51.046;13.796;2023-05-07T09:59:02;10.07;;;9.07;;
62798;SDS011;48842;51.046;13.796;2023-05-07T10:01:29;9.33;;;8.43;;
62798;SDS011;48842;51.046;13.796;2023-05-07T10:03:56;10.37;;;9.40;;
62798;SDS011;48842;51.046;13.796;2023-05-07T10:06:23;10.37;;;9.47;;
62798;SDS011;48842;51.046;13.796;2023-05-07T10:08:50;9.40;;;8.40;;
62798;SDS011;48842;51.046;13.796;2023-05-07T10:11:17;8.87;;;8.07;;
62798;SDS011;48842;51.046;13.796;2023-05-07T10:13:42;9.30;;;8.40;;
62798;SDS011;48842;51.046;13.796;2023-05-07T10:16:08;9.53;;;8.60;;
62798;SDS011;48842;51.046;13.796;2023-05-07T10:18:34;9.63;;;8.70;;
62798;SDS011;48842;51.046;13.796;2023-05-07T10:21:07;8.13;;;7.43;;
62798;SDS011;48842;51.046;13.796;2023-05-07T10:23:35;8.50;;;7.70;;
62798;SDS011;48842;51.046;13.796;2023-05-07T10:26:02;7.13;;;6.53;;
62798;SDS011;48842;51.046;13.796;2023-05-07T10:28:30;8.00;;;7.00;;
62798;SDS011;48842;51.046;13.796;2023-05-07T10:33:48;8.67;;;7.83;;
62798;SDS011;48842;51.046;13.796;2023-05-07T10:36:17;7.70;;;7.00;;
62798;SDS011;48842;51.046;13.796;2023-05-07T10:38:43;8.83;;;8.07;;
62798;SDS011;48842;51.046;13.796;2023-05-07T10:41:09;8.40;;;7.70;;
62798;SDS011;48842;51.046;13.796;2023-05-07T10:43:42;8.43;;;7.73;;
62798;SDS011;48842;51.046;13.796;2023-05-07T10:49:05;7.77;;;7.17;;
62798;SDS011;48842;51.046;13.796;2023-05-07T10:51:31;7.83;;;7.17;;
62798;SDS011;48842;51.046;13.796;2023-05-07T10:56:35;11.10;;;6.70;;
62798;SDS011;48842;51.046;13.796;2023-05-07T11:01:55;6.73;;;6.13;;
62798;SDS011;48842;51.046;13.796;2023-05-07T11:04:24;6.73;;;6.13;;
62798;SDS011;48842;51.046;13.796;2023-05-07T11:09:54;7.93;;;6.83;;
62798;SDS011;48842;51.046;13.796;2023-05-07T11:15:10;6.83;;;6.23;;
62798;SDS011;48842;51.046;13.796;2023-05-07T11:17:55;6.03;;;5.63;;
62798;SDS011;48842;51.046;13.796;2023-05-07T11:26:03;6.40;;;5.90;;
62798;SDS011;48842;51.046;13.796;2023-05-07T11:28:31;6.80;;;6.20;;
62798;SDS011;48842;51.046;13.796;2023-05-07T11:31:01;8.00;;;6.87;;
62798;SDS011;48842;51.046;13.796;2023-05-07T11:33:27;9.03;;;8.13;;
62798;SDS011;48842;51.046;13.796;2023-05-07T11:35:55;7.23;;;6.63;;
62798;SDS011;48842;51.046;13.796;2023-05-07T11:38:21;7.47;;;6.70;;
62798;SDS011;48842;51.046;13.796;2023-05-07T11:40:50;7.70;;;7.00;;
62798;SDS011;48842;51.046;13.796;2023-05-07T11:43:16;8.27;;;7.43;;
62798;SDS011;48842;51.046;13.796;2023-05-07T11:45:41;9.20;;;8.30;;
62798;SDS011;48842;51.046;13.796;2023-05-07T11:48:07;8.23;;;7.57;;
62798;SDS011;48842;51.046;13.796;2023-05-07T11:50:32;7.80;;;7.10;;
62798;SDS011;48842;51.046;13.796;2023-05-07T11:52:57;7.67;;;6.97;;
62798;SDS011;48842;51.046;13.796;2023-05-07T11:55:23;7.33;;;6.73;;
62798;SDS011;48842;51.046;13.796;2023-05-07T11:57:49;7.10;;;6.50;;
62798;SDS011;48842;51.046;13.796;2023-05-07T12:00:15;7.17;;;6.47;;
62798;SDS011;48842;51.046;13.796;2023-05-07T12:02:41;6.60;;;6.10;;
62798;SDS011;48842;51.046;13.796;2023-05-07T12:05:07;7.27;;;6.33;;
62798;SDS011;48842;51.046;13.796;2023-05-07T12:07:35;6.70;;;6.10;;
62798;SDS011;48842;51.046;13.796;2023-05-07T12:10:04;6.97;;;6.30;;
62798;SDS011;48842;51.046;13.796;2023-05-07T12:12:31;6.63;;;6.13;;
62798;SDS011;48842;51.046;13.796;2023-05-07T12:14:56;6.43;;;5.83;;
62798;SDS011;48842;51.046;13.796;2023-05-07T12:17:21;6.00;;;5.43;;
62798;SDS011;48842;51.046;13.796;2023-05-07T12:19:47;7.73;;;6.93;;
62798;SDS011;48842;51.046;13.796;2023-05-07T12:22:12;7.80;;;7.10;;
62798;SDS011;48842;51.046;13.796;2023-05-07T12:24:47;7.30;;;6.70;;
62798;SDS011;48842;51.046;13.796;2023-05-07T12:27:14;8.13;;;7.13;;
62798;SDS011;48842;51.046;13.796;2023-05-07T12:29:47;6.63;;;6.13;;
62798;SDS011;48842;51.046;13.796;2023-05-07T12:32:14;6.87;;;6.00;;
62798;SDS011;48842;51.046;13.796;2023-05-07T12:34:40;6.70;;;6.10;;
62798;SDS011;48842;51.046;13.796;2023-05-07T12:37:06;10.73;;;6.10;;
62798;SDS011;48842;51.046;13.796;2023-05-07T12:39:31;7.33;;;6.60;;
62798;SDS011;48842;51.046;13.796;2023-05-07T12:41:58;7.00;;;5.70;;
62798;SDS011;48842;51.046;13.796;2023-05-07T12:44:31;8.23;;;6.50;;
62798;SDS011;48842;51.046;13.796;2023-05-07T12:46:57;7.70;;;5.50;;
62798;SDS011;48842;51.046;13.796;2023-05-07T12:49:26;5.60;;;5.20;;
62798;SDS011;48842;51.046;13.796;2023-05-07T12:51:51;6.80;;;6.10;;
62798;SDS011;48842;51.046;13.796;2023-05-07T12:54:27;5.70;;;5.30;;
62798;SDS011;48842;51.046;13.796;2023-05-07T12:57:02;7.17;;;6.57;;
62798;SDS011;48842;51.046;13.796;2023-05-07T12:59:40;6.93;;;6.33;;
62798;SDS011;48842;51.046;13.796;2023-05-07T13:02:07;6.10;;;5.70;;
62798;SDS011;48842;51.046;13.796;2023-05-07T13:04:33;7.10;;;6.30;;
62798;SDS011;48842;51.046;13.796;2023-05-07T13:06:58;5.60;;;5.20;;
62798;SDS011;48842;51.046;13.796;2023-05-07T13:09:24;6.17;;;5.57;;
62798;SDS011;48842;51.046;13.796;2023-05-07T13:11:49;5.07;;;4.77;;
62798;SDS011;48842;51.046;13.796;2023-05-07T13:14:15;5.90;;;5.40;;
62798;SDS011;48842;51.046;13.796;2023-05-07T13:16:40;5.30;;;4.90;;
62798;SDS011;48842;51.046;13.796;2023-05-07T13:19:05;5.00;;;4.60;;
62798;SDS011;48842;51.046;13.796;2023-05-07T13:21:31;5.67;;;5.27;;
62798;SDS011;48842;51.046;13.796;2023-05-07T13:23:59;5.33;;;4.87;;
62798;SDS011;48842;51.046;13.796;2023-05-07T13:26:24;5.20;;;4.70;;
62798;SDS011;48842;51.046;13.796;2023-05-07T13:28:50;6.97;;;5.03;;
62798;SDS011;48842;51.046;13.796;2023-05-07T13:31:16;6.23;;;5.83;;
62798;SDS011;48842;51.046;13.796;2023-05-07T13:33:42;5.60;;;5.10;;
62798;SDS011;48842;51.046;13.796;2023-05-07T13:36:07;5.70;;;5.30;;
62798;SDS011;48842;51.046;13.796;2023-05-07T13:38:33;5.23;;;4.70;;
62798;SDS011;48842;51.046;13.796;2023-05-07T13:40:58;5.40;;;4.90;;
62798;SDS011;48842;51.046;13.796;2023-05-07T13:43:24;5.10;;;4.70;;
62798;SDS011;48842;51.046;13.796;2023-05-07T13:45:50;5.37;;;4.87;;
62798;SDS011;48842;51.046;13.796;2023-05-07T13:48:15;5.03;;;4.53;;
62798;SDS011;48842;51.046;13.796;2023-05-07T13:50:40;6.53;;;5.80;;
62798;SDS011;48842;51.046;13.796;2023-05-07T13:53:05;5.50;;;5.10;;
62798;SDS011;48842;51.046;13.796;2023-05-07T13:55:30;5.00;;;4.60;;
62798;SDS011;48842;51.046;13.796;2023-05-07T13:57:57;5.17;;;4.87;;
62798;SDS011;48842;51.046;13.796;2023-05-07T14:00:24;4.73;;;4.40;;
62798;SDS011;48842;51.046;13.796;2023-05-07T14:02:50;4.53;;;4.23;;
62798;SDS011;48842;51.046;13.796;2023-05-07T14:05:15;4.70;;;4.50;;
62798;SDS011;48842;51.046;13.796;2023-05-07T14:07:41;4.60;;;4.30;;
62798;SDS011;48842;51.046;13.796;2023-05-07T14:10:06;4.10;;;3.90;;
62798;SDS011;48842;51.046;13.796;2023-05-07T14:12:32;3.57;;;3.37;;
62798;SDS011;48842;51.046;13.796;2023-05-07T14:14:57;4.00;;;3.70;;
62798;SDS011;48842;51.046;13.796;2023-05-07T14:17:23;4.57;;;4.20;;
62798;SDS011;48842;51.046;13.796;2023-05-07T14:19:50;3.33;;;3.13;;
62798;SDS011;48842;51.046;13.796;2023-05-07T14:22:15;3.87;;;3.50;;
62798;SDS011;48842;51.046;13.796;2023-05-07T14:24:40;4.60;;;3.13;;
62798;SDS011;48842;51.046;13.796;2023-05-07T14:27:06;3.60;;;3.40;;
62798;SDS011;48842;51.046;13.796;2023-05-07T14:29:31;3.97;;;3.67;;
62798;SDS011;48842;51.046;13.796;2023-05-07T14:31:56;3.87;;;3.60;;
62798;SDS011;48842;51.046;13.796;2023-05-07T14:34:22;3.10;;;3.00;;
62798;SDS011;48842;51.046;13.796;2023-05-07T14:36:47;3.40;;;3.20;;
62798;SDS011;48842;51.046;13.796;2023-05-07T14:39:12;3.60;;;3.30;;